Time;durP1;ratioP1;P1;durP2;ratioP2;P2;SDS_P1;SDS_P2;PMS_P1;PMS_P2;Temp;Humidity;BMP_temperature;BMP_pressure;BME280_temperature;BME280_humidity;BME280_pressure;Samples;Min_cycle;Max_cycle;Signal;HPM_P1;HPM_P2
2023/07/17 00:02:05;;;;;;;11.40;6.40;;;21.90;74.70;;;;;;5033969;28;20053;-51
2023/07/17 00:04:51;;;;;;;9.15;5.72;;;21.90;74.10;;;;;;5033507;28;20296;-53
2023/07/17 00:07:39;;;;;;;8.85;5.65;;;21.80;74.20;;;;;;5035068;28;20053;-50
2023/07/17 00:10:25;;;;;;;7.43;5.60;;;21.80;74.20;;;;;;5034005;28;20112;-52
2023/07/17 00:13:11;;;;;;;9.27;5.82;;;21.70;75.00;;;;;;5033832;28;20056;-53
2023/07/17 00:15:56;;;;;;;12.80;5.97;;;21.60;75.70;;;;;;5033143;28;20040;-51
2023/07/17 00:18:42;;;;;;;8.05;6.07;;;21.50;77.70;;;;;;5032947;28;20025;-56
2023/07/17 00:21:28;;;;;;;7.72;5.60;;;21.50;77.50;;;;;;5032839;28;20034;-53
2023/07/17 00:24:14;;;;;;;10.30;5.80;;;21.40;78.20;;;;;;5033038;28;20133;-54
2023/07/17 00:27:01;;;;;;;7.72;5.47;;;21.40;77.70;;;;;;5034208;28;20363;-54
2023/07/17 00:29:47;;;;;;;7.70;5.57;;;21.50;78.30;;;;;;5033524;28;20084;-52
2023/07/17 00:32:33;;;;;;;8.57;5.53;;;21.40;78.60;;;;;;5033743;28;20393;-52
2023/07/17 00:35:19;;;;;;;9.23;5.40;;;21.40;79.40;;;;;;5032718;28;20037;-54
2023/07/17 00:38:05;;;;;;;8.52;6.07;;;21.40;79.90;;;;;;5032762;28;20026;-51
2023/07/17 00:40:51;;;;;;;10.15;5.93;;;21.40;77.50;;;;;;5034351;28;20030;-52
2023/07/17 00:43:37;;;;;;;7.75;5.97;;;21.40;76.40;;;;;;5033342;28;20033;-54
2023/07/17 00:46:23;;;;;;;8.45;6.43;;;21.30;76.60;;;;;;5034106;28;20104;-51
2023/07/17 00:49:10;;;;;;;9.15;5.90;;;21.30;76.90;;;;;;5033485;28;20025;-57
2023/07/17 00:51:57;;;;;;;8.88;6.20;;;21.30;76.30;;;;;;5035572;28;20022;-57
2023/07/17 00:54:44;;;;;;;7.32;5.85;;;21.20;76.60;;;;;;5036624;28;20040;-57
2023/07/17 00:57:31;;;;;;;9.80;6.03;;;21.30;76.80;;;;;;5033305;28;20112;-57
2023/07/17 01:00:19;;;;;;;9.73;5.97;;;21.30;76.90;;;;;;5031881;28;20056;-57
2023/07/17 01:03:05;;;;;;;11.65;5.88;;;21.20;77.10;;;;;;5034152;28;20064;-56
2023/07/17 01:05:51;;;;;;;9.15;6.05;;;21.10;77.10;;;;;;5033717;28;20033;-57
2023/07/17 01:08:37;;;;;;;6.60;5.45;;;21.10;77.50;;;;;;5033920;28;20041;-55
2023/07/17 01:11:23;;;;;;;9.77;5.50;;;21.10;77.60;;;;;;5034060;28;20057;-55
2023/07/17 01:14:19;;;;;;;7.85;5.70;;;21.00;77.30;;;;;;5033802;28;20107;-56
2023/07/17 01:17:06;;;;;;;10.13;6.15;;;20.90;77.70;;;;;;5033797;28;20056;-56
2023/07/17 01:19:52;;;;;;;9.38;6.18;;;20.90;77.60;;;;;;5033913;28;20091;-57
2023/07/17 01:23:02;;;;;;;9.55;6.50;;;20.80;76.90;;;;;;5032870;28;20033;-57
2023/07/17 01:25:48;;;;;;;10.25;6.40;;;20.60;76.90;;;;;;5034056;28;20087;-57
2023/07/17 01:28:34;;;;;;;8.38;6.05;;;20.60;77.30;;;;;;5033736;28;20046;-57
2023/07/17 01:31:20;;;;;;;8.77;6.32;;;20.50;77.40;;;;;;5032243;28;20021;-55
2023/07/17 01:34:06;;;;;;;7.60;6.05;;;20.50;78.00;;;;;;5031965;28;20109;-56
2023/07/17 01:36:52;;;;;;;7.32;6.10;;;20.50;77.90;;;;;;5033580;28;20401;-55
2023/07/17 01:39:38;;;;;;;10.35;6.63;;;20.40;78.20;;;;;;5017323;28;20079;-55
2023/07/17 01:42:24;;;;;;;12.23;7.18;;;20.30;78.60;;;;;;5033287;28;20509;-53
2023/07/17 01:45:10;;;;;;;8.63;6.88;;;20.20;79.30;;;;;;5032212;28;20417;-53
2023/07/17 01:47:56;;;;;;;10.73;6.97;;;20.10;79.70;;;;;;5031551;28;20041;-54
2023/07/17 01:50:42;;;;;;;8.32;5.93;;;19.90;80.70;;;;;;5032152;28;20038;-53
2023/07/17 01:53:28;;;;;;;9.77;6.68;;;19.90;81.00;;;;;;5033007;28;20026;-53
2023/07/17 01:56:14;;;;;;;9.60;6.28;;;19.90;81.10;;;;;;5033000;28;20538;-54
2023/07/17 01:59:00;;;;;;;8.30;6.47;;;20.10;81.20;;;;;;5031827;28;20044;-54
2023/07/17 02:01:46;;;;;;;16.40;6.72;;;20.10;81.20;;;;;;5032094;28;20041;-56
2023/07/17 02:04:32;;;;;;;9.93;7.60;;;20.10;81.70;;;;;;5032975;28;20037;-53
2023/07/17 02:07:18;;;;;;;13.23;10.52;;;20.00;81.40;;;;;;5031654;28;20099;-54
2023/07/17 02:10:04;;;;;;;9.68;7.70;;;20.00;81.30;;;;;;5032457;28;20095;-52
2023/07/17 02:12:50;;;;;;;8.82;6.10;;;20.00;80.50;;;;;;5031671;28;20100;-55
2023/07/17 02:15:36;;;;;;;10.68;7.05;;;19.90;80.40;;;;;;5031197;28;20026;-52
2023/07/17 02:18:23;;;;;;;11.98;7.18;;;19.80;81.20;;;;;;5033013;28;20502;-53
2023/07/17 02:21:09;;;;;;;9.98;6.65;;;19.90;81.40;;;;;;5032166;28;20477;-56
2023/07/17 02:23:57;;;;;;;10.07;6.82;;;19.90;81.90;;;;;;5033252;28;20102;-55
2023/07/17 02:26:43;;;;;;;10.40;7.07;;;19.80;81.40;;;;;;5032529;28;20037;-51
2023/07/17 02:29:29;;;;;;;15.27;11.05;;;19.80;81.50;;;;;;5032578;28;20034;-55
2023/07/17 02:32:15;;;;;;;11.88;9.00;;;19.90;80.60;;;;;;5031487;28;20576;-55
2023/07/17 02:35:01;;;;;;;9.27;7.10;;;19.80;80.40;;;;;;5032230;28;20032;-53
2023/07/17 02:37:46;;;;;;;10.73;6.72;;;19.90;80.60;;;;;;5032767;28;20018;-55
2023/07/17 02:40:32;;;;;;;9.40;6.95;;;19.90;80.70;;;;;;5031350;28;20121;-54
2023/07/17 02:43:18;;;;;;;11.43;7.22;;;19.90;81.20;;;;;;5031385;28;20026;-55
2023/07/17 02:46:04;;;;;;;11.15;6.20;;;19.90;80.80;;;;;;5032352;28;20478;-54
2023/07/17 02:48:50;;;;;;;9.98;7.43;;;19.90;81.30;;;;;;5030657;28;20118;-55
2023/07/17 02:51:36;;;;;;;10.70;6.97;;;19.80;81.80;;;;;;5031359;28;20021;-54
2023/07/17 02:54:22;;;;;;;8.60;6.70;;;19.80;81.70;;;;;;5031060;28;20050;-55
2023/07/17 02:57:08;;;;;;;11.25;7.10;;;19.70;81.60;;;;;;5031952;28;20033;-55
2023/07/17 02:59:54;;;;;;;12.25;7.40;;;19.70;81.50;;;;;;5034534;28;20128;-55
2023/07/17 03:02:43;;;;;;;9.20;7.18;;;19.70;82.10;;;;;;5036816;28;20043;-55
2023/07/17 03:05:29;;;;;;;10.70;7.28;;;19.50;81.50;;;;;;5034725;28;20033;-55
2023/07/17 03:08:15;;;;;;;11.73;7.28;;;19.50;81.50;;;;;;5035857;28;20147;-53
2023/07/17 03:11:03;;;;;;;8.50;6.75;;;19.50;81.70;;;;;;5035142;28;20025;-54
2023/07/17 03:13:49;;;;;;;10.52;7.03;;;19.50;82.30;;;;;;5035529;28;20041;-52
2023/07/17 03:16:35;;;;;;;10.63;7.35;;;19.40;83.20;;;;;;5036512;28;20335;-53
2023/07/17 03:19:22;;;;;;;10.73;6.85;;;19.20;83.90;;;;;;5035108;28;20021;-51
2023/07/17 03:22:07;;;;;;;10.10;7.30;;;19.30;84.30;;;;;;5036323;28;20041;-57
2023/07/17 03:24:54;;;;;;;8.70;6.90;;;19.30;84.40;;;;;;5040330;28;20037;-57
2023/07/17 03:27:40;;;;;;;11.38;7.18;;;19.30;83.90;;;;;;5043756;28;20034;-57
2023/07/17 03:30:26;;;;;;;10.43;7.70;;;19.30;84.50;;;;;;5037116;28;20044;-56
2023/07/17 03:33:12;;;;;;;9.07;7.00;;;19.30;84.50;;;;;;5035045;28;20022;-56
2023/07/17 03:35:58;;;;;;;12.40;7.63;;;19.10;84.90;;;;;;5035260;28;20026;-57
2023/07/17 03:38:44;;;;;;;11.95;7.53;;;19.00;84.90;;;;;;5035229;28;20030;-56
2023/07/17 03:41:30;;;;;;;9.13;7.45;;;18.90;85.30;;;;;;5035165;28;20129;-57
2023/07/17 03:44:16;;;;;;;11.38;7.00;;;18.70;85.90;;;;;;5035727;28;20026;-53
2023/07/17 03:47:02;;;;;;;11.00;7.50;;;18.70;86.10;;;;;;5035823;28;20410;-53
2023/07/17 03:49:48;;;;;;;10.52;7.47;;;18.60;86.30;;;;;;5035515;28;20042;-55
2023/07/17 03:52:34;;;;;;;9.02;6.95;;;18.70;85.70;;;;;;5036300;28;20493;-57
2023/07/17 03:55:20;;;;;;;10.30;7.78;;;18.80;85.20;;;;;;5036503;28;20037;-57
2023/07/17 03:58:07;;;;;;;10.80;7.97;;;18.80;84.90;;;;;;5034198;28;20132;-57
2023/07/17 04:00:52;;;;;;;9.45;7.22;;;18.70;84.80;;;;;;5034871;28;20109;-53
2023/07/17 04:03:38;;;;;;;12.60;7.03;;;18.80;84.60;;;;;;5034587;28;20116;-53
2023/07/17 04:06:24;;;;;;;9.23;6.63;;;18.90;84.60;;;;;;5034469;28;20033;-53
2023/07/17 04:09:10;;;;;;;9.75;6.95;;;19.00;84.50;;;;;;5034706;28;20045;-53
2023/07/17 04:11:56;;;;;;;14.55;7.50;;;19.30;84.00;;;;;;5033926;28;20061;-53
2023/07/17 04:14:42;;;;;;;10.63;7.57;;;19.30;83.80;;;;;;5033802;28;20057;-54
2023/07/17 04:17:28;;;;;;;11.85;7.38;;;19.40;84.10;;;;;;5034416;28;20037;-53
2023/07/17 04:20:16;;;;;;;12.75;7.93;;;19.40;83.30;;;;;;5033786;28;20040;-52
2023/07/17 04:23:02;;;;;;;9.75;7.28;;;19.40;83.30;;;;;;5034783;28;20486;-50
2023/07/17 04:25:49;;;;;;;11.10;7.35;;;19.50;83.50;;;;;;5034854;28;20402;-53
2023/07/17 04:28:36;;;;;;;11.10;6.97;;;19.60;83.50;;;;;;5034354;28;20124;-53
2023/07/17 04:31:22;;;;;;;10.65;7.03;;;19.80;83.60;;;;;;5032957;28;20402;-52
2023/07/17 04:34:08;;;;;;;11.35;7.60;;;19.80;83.40;;;;;;5033532;28;20053;-52
2023/07/17 04:36:54;;;;;;;12.70;7.85;;;19.80;83.10;;;;;;5033211;28;20029;-54
2023/07/17 04:39:40;;;;;;;12.27;8.15;;;19.80;83.20;;;;;;5032544;28;20502;-52
2023/07/17 04:42:26;;;;;;;10.57;7.90;;;19.90;83.20;;;;;;5033228;28;20075;-52
2023/07/17 04:45:12;;;;;;;10.20;7.60;;;19.90;82.90;;;;;;5033064;28;20071;-52
2023/07/17 04:47:58;;;;;;;13.18;7.22;;;19.90;83.00;;;;;;5033753;28;20086;-52
2023/07/17 04:50:45;;;;;;;10.00;7.50;;;19.80;82.80;;;;;;5033960;28;20110;-52
2023/07/17 04:53:31;;;;;;;9.07;7.15;;;19.80;82.50;;;;;;5032424;28;20092;-51
2023/07/17 04:56:16;;;;;;;8.32;7.40;;;19.70;83.30;;;;;;5033607;28;20028;-51
2023/07/17 04:59:04;;;;;;;10.23;7.20;;;19.50;84.30;;;;;;5032616;28;20032;-51
2023/07/17 05:01:49;;;;;;;11.90;7.57;;;19.50;85.10;;;;;;5032699;28;20037;-54
2023/07/17 05:04:36;;;;;;;11.85;8.10;;;19.50;84.50;;;;;;5033940;28;20030;-54
2023/07/17 05:07:21;;;;;;;9.60;7.47;;;19.50;84.60;;;;;;5033683;28;20030;-54
2023/07/17 05:10:10;;;;;;;8.93;7.03;;;19.50;84.10;;;;;;5033130;28;20026;-54
2023/07/17 05:12:56;;;;;;;13.20;8.70;;;19.50;84.70;;;;;;5033979;28;20501;-53
2023/07/17 05:15:42;;;;;;;10.60;7.15;;;19.50;85.20;;;;;;5033776;28;20036;-52
2023/07/17 05:18:27;;;;;;;15.95;7.72;;;19.50;84.50;;;;;;5033799;28;20026;-51
2023/07/17 05:21:13;;;;;;;10.85;7.78;;;19.60;84.30;;;;;;5032978;28;20116;-53
2023/07/17 05:23:59;;;;;;;11.05;7.90;;;19.70;84.00;;;;;;5031845;28;20109;-54
2023/07/17 05:26:46;;;;;;;11.05;7.70;;;19.90;83.50;;;;;;5032709;28;20034;-51
2023/07/17 05:29:32;;;;;;;12.05;7.82;;;20.00;83.40;;;;;;5032408;28;20045;-55
2023/07/17 05:32:18;;;;;;;9.77;7.72;;;20.10;83.40;;;;;;5035708;28;20033;-54
2023/07/17 05:35:05;;;;;;;10.30;7.40;;;20.10;83.80;;;;;;5036508;28;20021;-54
2023/07/17 05:37:52;;;;;;;12.00;7.20;;;20.20;83.20;;;;;;5033383;28;20501;-54
2023/07/17 05:40:40;;;;;;;14.27;7.60;;;20.40;82.90;;;;;;5031570;28;20070;-53
2023/07/17 05:43:26;;;;;;;10.48;7.25;;;20.30;82.80;;;;;;5031875;28;20452;-52
2023/07/17 05:46:12;;;;;;;10.93;8.27;;;20.40;83.30;;;;;;5033185;28;20473;-52
2023/07/17 05:48:58;;;;;;;16.27;8.50;;;20.40;83.20;;;;;;5033255;28;20521;-53
2023/07/17 05:51:44;;;;;;;16.13;9.00;;;20.50;83.50;;;;;;5033282;28;20025;-54
2023/07/17 05:54:30;;;;;;;9.93;6.97;;;20.50;83.70;;;;;;5032946;28;20033;-55
2023/07/17 05:57:16;;;;;;;14.95;8.18;;;20.60;83.10;;;;;;5031453;28;20026;-54
2023/07/17 06:00:03;;;;;;;14.23;8.30;;;20.60;83.30;;;;;;5033421;28;20045;-55
2023/07/17 06:02:49;;;;;;;14.73;7.82;;;20.70;83.30;;;;;;5032664;28;20409;-54
2023/07/17 06:05:37;;;;;;;15.18;8.27;;;20.80;83.40;;;;;;5034602;28;20059;-52
2023/07/17 06:08:23;;;;;;;14.23;7.95;;;20.90;83.20;;;;;;5034715;28;20030;-56
2023/07/17 06:11:09;;;;;;;19.35;9.07;;;21.00;82.50;;;;;;5033056;28;20413;-54
2023/07/17 06:13:55;;;;;;;12.68;8.13;;;21.00;83.00;;;;;;5031580;28;20513;-53
2023/07/17 06:16:41;;;;;;;13.10;7.95;;;21.10;82.40;;;;;;5031660;28;20033;-55
2023/07/17 06:19:27;;;;;;;10.32;7.18;;;21.20;82.10;;;;;;5032480;28;20048;-53
2023/07/17 06:22:13;;;;;;;13.20;7.65;;;21.20;82.10;;;;;;5033563;28;20029;-52
2023/07/17 06:24:59;;;;;;;14.55;7.82;;;21.20;82.50;;;;;;5032019;28;20029;-54
2023/07/17 06:27:45;;;;;;;12.43;8.43;;;21.30;81.60;;;;;;5032086;28;20041;-54
2023/07/17 06:30:31;;;;;;;11.55;7.20;;;21.50;81.00;;;;;;5030937;28;20052;-55
2023/07/17 06:33:17;;;;;;;15.40;8.13;;;21.60;80.30;;;;;;5033723;28;20041;-55
2023/07/17 06:36:03;;;;;;;13.57;7.88;;;21.60;79.60;;;;;;5035111;28;20035;-55
2023/07/17 06:38:49;;;;;;;12.45;8.20;;;21.80;79.30;;;;;;5034893;28;20063;-53
2023/07/17 06:41:35;;;;;;;11.57;7.50;;;21.90;79.40;;;;;;5034971;28;20029;-52
2023/07/17 06:44:21;;;;;;;9.98;8.23;;;22.00;79.10;;;;;;5036834;28;20133;-52
2023/07/17 06:47:07;;;;;;;9.27;6.80;;;22.20;78.30;;;;;;5036389;28;20509;-51
2023/07/17 06:49:53;;;;;;;13.80;7.55;;;22.30;77.70;;;;;;5036397;28;20087;-53
2023/07/17 06:52:41;;;;;;;11.55;7.50;;;22.20;78.00;;;;;;5035455;28;20026;-53
2023/07/17 06:55:27;;;;;;;10.52;7.40;;;22.30;77.70;;;;;;5035432;28;20080;-51
2023/07/17 06:58:13;;;;;;;11.32;7.80;;;22.40;77.10;;;;;;5036219;28;20104;-50
2023/07/17 07:01:00;;;;;;;10.73;7.55;;;22.50;76.60;;;;;;5036485;28;20029;-53
2023/07/17 07:03:46;;;;;;;12.02;7.82;;;22.60;75.60;;;;;;5036290;28;20486;-52
2023/07/17 07:06:32;;;;;;;13.57;7.90;;;22.60;75.70;;;;;;5034858;28;20083;-51
2023/07/17 07:09:18;;;;;;;11.07;7.70;;;22.70;76.20;;;;;;5034545;28;20493;-50
2023/07/17 07:12:04;;;;;;;10.65;7.55;;;22.80;75.70;;;;;;5035293;28;20025;-52
2023/07/17 07:14:50;;;;;;;9.35;7.72;;;23.00;75.80;;;;;;5035766;28;20029;-50
2023/07/17 07:17:36;;;;;;;12.95;7.65;;;23.00;75.00;;;;;;5034704;28;20654;-51
2023/07/17 07:20:22;;;;;;;13.55;7.70;;;23.10;75.00;;;;;;5034915;28;20036;-52
2023/07/17 07:23:08;;;;;;;12.40;7.35;;;23.20;75.40;;;;;;5034887;28;20033;-51
2023/07/17 07:25:54;;;;;;;9.98;7.28;;;23.20;74.20;;;;;;5035782;28;20073;-53
2023/07/17 07:28:40;;;;;;;8.77;6.80;;;23.30;73.30;;;;;;5035051;28;20041;-53
2023/07/17 07:31:26;;;;;;;11.45;7.18;;;23.30;72.10;;;;;;5034620;28;20030;-53
2023/07/17 07:34:12;;;;;;;11.57;6.95;;;23.50;71.50;;;;;;5049828;28;20394;-54
2023/07/17 07:36:58;;;;;;;10.55;7.60;;;23.50;71.50;;;;;;5045158;28;20036;-54
2023/07/17 07:39:44;;;;;;;9.55;7.40;;;23.50;72.00;;;;;;5034834;28;20443;-56
2023/07/17 07:42:30;;;;;;;9.68;8.00;;;23.30;72.50;;;;;;5036663;28;20113;-52
2023/07/17 07:45:16;;;;;;;8.68;7.18;;;23.20;72.40;;;;;;5035390;28;20395;-52
2023/07/17 07:48:03;;;;;;;8.50;7.20;;;23.30;72.20;;;;;;5035645;28;20040;-53
2023/07/17 07:50:49;;;;;;;11.93;7.43;;;23.40;71.90;;;;;;5034876;28;20112;-50
2023/07/17 07:53:35;;;;;;;13.18;6.93;;;23.60;71.50;;;;;;5034280;28;20025;-53
2023/07/17 07:56:21;;;;;;;10.50;6.78;;;23.70;71.10;;;;;;5033799;28;20375;-52
2023/07/17 07:59:06;;;;;;;10.27;6.90;;;23.70;71.90;;;;;;5033691;28;20029;-53
2023/07/17 08:01:52;;;;;;;11.80;7.40;;;23.80;71.10;;;;;;5035427;28;20030;-53
2023/07/17 08:04:38;;;;;;;10.82;6.88;;;23.90;70.20;;;;;;5034826;28;20035;-53
2023/07/17 08:07:24;;;;;;;11.20;6.85;;;23.70;69.50;;;;;;5041825;28;20029;-54
2023/07/17 08:10:10;;;;;;;11.98;6.55;;;23.70;69.90;;;;;;5037667;28;20061;-54
2023/07/17 08:12:57;;;;;;;10.25;6.68;;;23.80;70.00;;;;;;5036079;28;20026;-51
2023/07/17 08:15:43;;;;;;;9.45;6.90;;;23.90;70.00;;;;;;5034322;28;20032;-57
2023/07/17 08:18:29;;;;;;;13.48;7.38;;;24.00;70.60;;;;;;5033873;28;20025;-57
2023/07/17 08:21:16;;;;;;;11.20;7.10;;;24.00;70.10;;;;;;5033234;28;20045;-56
2023/07/17 08:24:02;;;;;;;12.00;6.97;;;24.10;69.30;;;;;;5035824;28;20118;-56
2023/07/17 08:26:48;;;;;;;13.15;7.88;;;24.00;69.80;;;;;;5035475;28;20037;-56
2023/07/17 08:29:34;;;;;;;16.40;7.85;;;24.10;70.20;;;;;;5035081;28;20056;-55
2023/07/17 08:32:20;;;;;;;12.10;7.30;;;24.20;70.10;;;;;;5033248;28;20494;-54
2023/07/17 08:35:06;;;;;;;9.52;6.95;;;24.30;68.90;;;;;;5035352;28;20028;-56
2023/07/17 08:37:52;;;;;;;13.60;6.72;;;24.30;69.10;;;;;;5034959;28;20462;-57
2023/07/17 08:40:39;;;;;;;11.73;6.70;;;24.10;68.90;;;;;;5034342;28;20482;-56
2023/07/17 08:43:27;;;;;;;12.27;7.10;;;24.10;69.70;;;;;;5033872;28;20597;-56
2023/07/17 08:46:13;;;;;;;9.85;6.28;;;24.30;69.50;;;;;;5035004;28;20033;-57
2023/07/17 08:49:01;;;;;;;11.05;6.88;;;24.20;69.50;;;;;;5033290;28;20030;-57
2023/07/17 08:51:49;;;;;;;10.68;6.68;;;24.30;69.10;;;;;;5033778;28;20036;-56
2023/07/17 08:54:35;;;;;;;8.75;6.00;;;24.30;67.50;;;;;;5034897;28;20457;-57
2023/07/17 08:57:22;;;;;;;14.55;5.93;;;24.40;67.50;;;;;;5031841;28;20613;-57
2023/07/17 09:00:09;;;;;;;10.20;5.78;;;24.30;67.70;;;;;;5032971;28;20509;-56
2023/07/17 09:02:56;;;;;;;11.50;5.78;;;24.50;67.30;;;;;;5033683;28;20037;-56
2023/07/17 09:05:43;;;;;;;8.73;5.60;;;24.50;66.40;;;;;;5034781;28;20029;-57
2023/07/17 09:08:29;;;;;;;9.57;5.85;;;24.40;67.40;;;;;;5032864;28;20030;-53
2023/07/17 09:11:15;;;;;;;11.07;6.30;;;24.40;67.70;;;;;;5034723;28;20524;-53
2023/07/17 09:14:03;;;;;;;10.68;5.78;;;24.60;67.40;;;;;;5034757;28;20029;-54
2023/07/17 09:16:59;;;;;;;9.38;5.53;;;24.50;67.20;;;;;;5033273;28;20029;-56
2023/07/17 09:19:45;;;;;;;8.98;5.82;;;24.70;66.90;;;;;;5033919;28;20038;-58
2023/07/17 09:22:30;;;;;;;10.35;4.80;;;24.80;66.80;;;;;;5034650;28;20382;-56
2023/07/17 09:25:17;;;;;;;6.57;5.30;;;25.00;65.60;;;;;;5034477;28;20484;-56
2023/07/17 09:28:03;;;;;;;9.13;5.28;;;25.00;65.60;;;;;;5033718;28;20034;-53
2023/07/17 09:30:59;;;;;;;10.18;4.68;;;24.90;65.20;;;;;;5032728;28;20032;-54
2023/07/17 09:33:45;;;;;;;9.50;5.00;;;24.70;65.90;;;;;;5037895;28;20036;-56
2023/07/17 09:36:31;;;;;;;8.77;4.70;;;24.80;65.90;;;;;;5040048;28;20062;-58
2023/07/17 09:39:18;;;;;;;10.40;5.07;;;25.00;65.70;;;;;;5032702;28;20409;-56
2023/07/17 09:42:20;;;;;;;8.73;5.50;;;25.00;66.00;;;;;;5033702;28;20064;-57
2023/07/17 09:45:07;;;;;;;8.13;5.30;;;25.20;65.60;;;;;;5033554;28;20061;-57
2023/07/17 09:47:54;;;;;;;9.38;5.93;;;25.30;65.00;;;;;;5034425;28;20208;-53
2023/07/17 09:50:40;;;;;;;7.53;5.20;;;25.20;66.00;;;;;;5033783;28;20108;-55
2023/07/17 09:53:27;;;;;;;12.38;6.70;;;25.20;66.10;;;;;;5033478;28;20086;-52
2023/07/17 09:56:18;;;;;;;10.07;6.30;;;25.20;66.50;;;;;;5032626;28;20040;-53
2023/07/17 09:59:14;;;;;;;10.57;6.18;;;25.40;66.90;;;;;;5032039;28;20533;-56
2023/07/17 10:02:02;;;;;;;8.73;5.75;;;25.60;66.50;;;;;;5033346;28;20032;-56
2023/07/17 10:04:52;;;;;;;11.10;6.25;;;25.70;65.90;;;;;;5033262;28;20410;-55
2023/07/17 10:07:42;;;;;;;6.13;4.57;;;25.80;66.60;;;;;;5031477;28;20105;-52
2023/07/17 10:10:28;;;;;;;7.90;4.72;;;25.90;64.40;;;;;;5034708;28;20052;-53
2023/07/17 10:13:15;;;;;;;7.15;4.82;;;26.10;63.00;;;;;;5031579;28;20179;-52
2023/07/17 10:16:01;;;;;;;10.00;5.03;;;26.10;63.40;;;;;;5033192;28;20025;-52
2023/07/17 10:18:49;;;;;;;7.95;4.35;;;26.20;64.10;;;;;;5031670;28;20033;-53
2023/07/17 10:21:54;;;;;;;10.13;4.65;;;26.10;63.70;;;;;;5031746;28;20537;-52
2023/07/17 10:24:41;;;;;;;8.38;4.88;;;26.00;64.00;;;;;;5033145;28;20029;-52
2023/07/17 10:27:41;;;;;;;6.25;4.00;;;26.10;63.70;;;;;;5032636;28;20405;-50
2023/07/17 10:30:33;;;;;;;8.48;4.65;;;25.80;62.50;;;;;;5032001;28;20063;-52
2023/07/17 10:33:20;;;;;;;8.38;5.22;;;25.90;63.20;;;;;;5032165;28;20431;-54
2023/07/17 10:36:06;;;;;;;9.57;4.82;;;26.10;62.70;;;;;;5031531;28;20037;-54
2023/07/17 10:38:53;;;;;;;10.32;5.05;;;26.40;62.20;;;;;;5031352;28;20026;-53
2023/07/17 10:41:39;;;;;;;7.40;4.75;;;26.40;62.20;;;;;;5031272;28;20034;-55
2023/07/17 10:44:25;;;;;;;7.88;4.80;;;26.40;62.20;;;;;;5030806;28;20044;-55
2023/07/17 10:47:10;;;;;;;7.35;5.00;;;26.20;63.30;;;;;;5031388;28;20041;-53
2023/07/17 10:50:05;;;;;;;11.15;5.05;;;26.20;60.70;;;;;;5031404;28;20114;-52
2023/07/17 10:52:51;;;;;;;9.18;4.93;;;26.00;61.90;;;;;;5031544;28;20014;-56
2023/07/17 10:55:37;;;;;;;7.03;4.63;;;26.30;61.40;;;;;;5032649;28;20084;-54
2023/07/17 10:58:23;;;;;;;8.80;4.50;;;26.30;61.00;;;;;;5031397;28;20038;-54
2023/07/17 11:01:09;;;;;;;8.27;5.03;;;26.40;61.50;;;;;;5032470;28;20482;-56
2023/07/17 11:03:55;;;;;;;8.90;5.13;;;26.20;61.60;;;;;;5036335;28;20033;-55
2023/07/17 11:06:41;;;;;;;7.53;4.95;;;26.10;61.60;;;;;;5033385;28;20117;-56
2023/07/17 11:09:27;;;;;;;7.32;4.78;;;26.00;62.40;;;;;;5033168;28;20085;-55
2023/07/17 11:12:13;;;;;;;9.50;5.00;;;25.80;62.40;;;;;;5032884;28;20140;-53
2023/07/17 11:15:00;;;;;;;5.93;4.40;;;25.60;63.40;;;;;;5030843;28;20026;-54
2023/07/17 11:17:47;;;;;;;8.85;4.85;;;25.80;63.50;;;;;;5031855;28;20061;-57
2023/07/17 11:20:34;;;;;;;5.75;4.60;;;25.90;63.80;;;;;;5034497;28;20069;-57
2023/07/17 11:23:20;;;;;;;9.27;4.78;;;25.80;63.10;;;;;;5036095;28;20197;-55
2023/07/17 11:26:06;;;;;;;7.65;4.88;;;25.60;63.50;;;;;;5034674;28;20036;-55
2023/07/17 11:28:54;;;;;;;10.15;5.22;;;25.30;63.70;;;;;;5035887;28;20034;-53
2023/07/17 11:31:40;;;;;;;9.32;5.32;;;25.40;64.00;;;;;;5034813;28;20025;-51
2023/07/17 11:34:26;;;;;;;7.28;4.75;;;25.40;64.40;;;;;;5037026;28;20474;-54
2023/07/17 11:37:34;;;;;;;9.50;4.93;;;25.50;64.50;;;;;;5040686;28;20029;-56
2023/07/17 11:40:20;;;;;;;9.40;5.13;;;25.50;64.00;;;;;;5035035;28;20030;-52
2023/07/17 11:43:06;;;;;;;9.60;5.20;;;25.60;64.10;;;;;;5035767;28;20036;-54
2023/07/17 11:46:01;;;;;;;8.88;5.00;;;26.00;64.20;;;;;;5034182;28;20056;-56
2023/07/17 11:48:47;;;;;;;9.38;5.57;;;26.10;63.40;;;;;;5035101;28;20405;-54
2023/07/17 11:51:33;;;;;;;7.43;4.97;;;26.10;63.30;;;;;;5035625;28;20021;-56
2023/07/17 11:54:19;;;;;;;7.88;4.88;;;26.40;63.30;;;;;;5035571;28;20029;-56
2023/07/17 11:57:05;;;;;;;10.60;5.55;;;26.60;62.80;;;;;;5035393;28;20047;-54
2023/07/17 12:00:01;;;;;;;8.75;5.30;;;26.30;62.50;;;;;;5035227;28;20119;-56
2023/07/17 12:02:46;;;;;;;8.73;5.43;;;26.10;63.30;;;;;;5034710;28;20040;-52
2023/07/17 12:05:32;;;;;;;9.88;5.35;;;26.00;62.60;;;;;;5035973;28;20025;-52
2023/07/17 12:08:19;;;;;;;6.28;5.00;;;25.90;62.90;;;;;;5035111;28;20095;-54
2023/07/17 12:11:05;;;;;;;10.23;5.80;;;26.10;62.90;;;;;;5037021;28;20034;-57
2023/07/17 12:13:51;;;;;;;9.00;5.80;;;26.10;62.00;;;;;;5034952;28;20025;-51
2023/07/17 12:16:37;;;;;;;7.53;5.15;;;26.20;62.40;;;;;;5035470;28;20073;-52
2023/07/17 12:19:22;;;;;;;7.18;4.75;;;26.50;62.50;;;;;;5035456;28;20038;-53
2023/07/17 12:22:08;;;;;;;10.25;5.60;;;26.70;61.90;;;;;;5035433;28;20064;-55
2023/07/17 12:24:56;;;;;;;11.98;5.80;;;27.10;61.50;;;;;;5034678;28;20087;-55
2023/07/17 12:27:43;;;;;;;11.15;5.47;;;26.70;62.00;;;;;;5034720;28;20037;-55
2023/07/17 12:30:29;;;;;;;7.70;5.13;;;26.80;60.70;;;;;;5034872;28;20033;-54
2023/07/17 12:33:16;;;;;;;9.23;5.03;;;26.80;59.80;;;;;;5034957;28;20119;-54
2023/07/17 12:36:01;;;;;;;6.43;5.07;;;26.90;59.80;;;;;;5034907;28;20505;-54
2023/07/17 12:38:47;;;;;;;9.30;5.43;;;27.00;60.20;;;;;;5033026;28;20033;-53
2023/07/17 12:41:33;;;;;;;9.27;5.22;;;26.70;60.20;;;;;;5033008;28;20029;-53
2023/07/17 12:44:19;;;;;;;8.55;5.57;;;26.90;60.50;;;;;;5034868;28;20033;-55
2023/07/17 12:47:06;;;;;;;9.82;5.22;;;27.10;60.10;;;;;;5032740;28;20497;-54
2023/07/17 12:49:52;;;;;;;7.95;4.97;;;27.20;59.60;;;;;;5032689;28;20045;-56
2023/07/17 12:52:38;;;;;;;9.27;5.30;;;26.80;60.10;;;;;;5033893;28;20028;-51
2023/07/17 12:55:24;;;;;;;11.32;6.38;;;26.80;59.70;;;;;;5034814;28;20030;-52
2023/07/17 12:58:10;;;;;;;10.23;5.63;;;27.30;60.30;;;;;;5034568;28;20017;-54
2023/07/17 13:00:56;;;;;;;9.75;5.20;;;27.50;58.70;;;;;;5034517;28;20041;-55
2023/07/17 13:03:42;;;;;;;6.90;5.07;;;27.50;58.60;;;;;;5032845;28;20040;-55
2023/07/17 13:06:28;;;;;;;8.35;5.45;;;27.30;58.60;;;;;;5033025;28;20521;-53
2023/07/17 13:09:14;;;;;;;9.00;5.63;;;27.60;58.80;;;;;;5033764;28;20036;-54
2023/07/17 13:12:00;;;;;;;8.60;5.57;;;27.40;58.90;;;;;;5032610;28;20022;-53
2023/07/17 13:14:46;;;;;;;11.30;5.15;;;27.40;59.30;;;;;;5032377;28;20026;-58
2023/07/17 13:17:31;;;;;;;6.15;4.97;;;27.30;59.30;;;;;;5034090;28;20022;-56
2023/07/17 13:20:17;;;;;;;8.70;5.45;;;27.00;59.80;;;;;;5034312;28;20486;-55
2023/07/17 13:23:03;;;;;;;8.30;5.53;;;27.10;59.90;;;;;;5032658;28;20057;-56
2023/07/17 13:25:49;;;;;;;10.82;5.75;;;26.90;60.70;;;;;;5034174;28;20111;-56
2023/07/17 13:28:35;;;;;;;8.82;5.70;;;27.30;59.60;;;;;;5033616;28;20053;-50
2023/07/17 13:31:22;;;;;;;7.38;5.82;;;27.60;58.10;;;;;;5032159;28;20406;-55
2023/07/17 13:34:08;;;;;;;8.57;5.75;;;27.40;58.10;;;;;;5035307;28;20033;-56
2023/07/17 13:36:55;;;;;;;6.40;5.07;;;27.40;57.90;;;;;;5042874;28;20056;-59
2023/07/17 13:39:41;;;;;;;11.05;5.80;;;27.50;57.70;;;;;;5044622;28;20120;-55
2023/07/17 13:42:27;;;;;;;11.32;5.38;;;27.50;58.70;;;;;;5034238;28;20033;-52
2023/07/17 13:45:13;;;;;;;6.88;5.30;;;27.70;58.50;;;;;;5033232;28;20030;-52
2023/07/17 13:47:59;;;;;;;6.88;4.90;;;27.70;58.00;;;;;;5034251;28;20040;-55
2023/07/17 13:50:45;;;;;;;7.78;4.90;;;27.80;57.70;;;;;;5031973;28;20037;-56
2023/07/17 13:53:31;;;;;;;7.30;5.15;;;27.70;58.50;;;;;;5031873;28;20017;-56
2023/07/17 13:56:17;;;;;;;8.77;5.90;;;27.70;58.20;;;;;;5031788;28;20038;-54
2023/07/17 13:59:07;;;;;;;7.72;5.22;;;28.00;58.30;;;;;;5032817;28;20034;-55
2023/07/17 14:01:53;;;;;;;10.88;5.45;;;28.10;57.90;;;;;;5033404;28;20371;-55
2023/07/17 14:04:39;;;;;;;6.15;5.28;;;28.20;57.60;;;;;;5032904;28;20548;-55
2023/07/17 14:07:25;;;;;;;8.30;5.43;;;28.20;57.50;;;;;;5031625;28;20033;-51
2023/07/17 14:10:11;;;;;;;8.55;5.10;;;28.30;58.30;;;;;;5032755;28;20025;-51
2023/07/17 14:12:57;;;;;;;9.82;5.60;;;28.40;57.10;;;;;;5037074;28;20036;-57
2023/07/17 14:15:43;;;;;;;10.60;5.47;;;28.40;56.90;;;;;;5033236;28;20491;-53
2023/07/17 14:18:29;;;;;;;8.95;5.25;;;27.90;57.20;;;;;;5031589;28;20029;-54
2023/07/17 14:21:15;;;;;;;10.00;5.22;;;28.10;57.80;;;;;;5031128;28;20029;-56